CZA weather

Chichen Itza International Airport
Chichen Itza, Yucat√°n, Mexico

Public forecast

Using degrees Celsius for public forecast. Weather courtesy of forecast.io.

Current aviation weather report (METAR) for Chichen Itza International Airport

Report is more than 6 hours old.

Retrieved 2020/04/27 12:10 UTC (1 month ago):

MMCT 271210Z RTD 00000KT 2SM BR BKN010 21/21 A2990 RMK 8/700

Closest aviation forecast (TAF) to Chichen Itza International Airport

Closest forecast is Licenciado Manuel Crescencio Rejon Int Airport, 70.3 nm (130.2 km) WNW. Retrieved 2020/06/01 18:24 UTC (16 minutes ago):

TAF MMMD 011717Z 0118/0224 10015KT 5SM -RA BKN010CB OVC070 TX28/0122Z TN24/0212Z TEMPO 0118/0120 3SM TSRA FM012100 10015KT P6SM SCT020 BKN100 FM020900 00000KT 3SM HZ OVC015 FM021600 16010KT 5SM HZ BKN030 BKN100